Time;durP1;ratioP1;P1;durP2;ratioP2;P2;SDS_P1;SDS_P2;PMS_P1;PMS_P2;Temp;Humidity;BMP_temperature;BMP_pressure;BME280_temperature;BME280_humidity;BME280_pressure;Samples;Min_cycle;Max_cycle;Signal;HPM_P1;HPM_P2
2022/05/19 00:02:07;;;;;;;1.90;1.30;;;;;;;17.21;64.95;102399.97;5079638;28;20111;-83
2022/05/19 00:04:32;;;;;;;1.77;1.20;;;;;;;17.23;64.59;102403.56;5071828;28;20115;-81
2022/05/19 00:06:58;;;;;;;4.20;1.23;;;;;;;17.28;64.48;102410.94;5088586;28;20166;-81
2022/05/19 00:09:24;;;;;;;1.60;1.23;;;;;;;17.28;64.48;102397.72;5090330;28;20040;-83
2022/05/19 00:11:51;;;;;;;2.05;1.13;;;;;;;17.30;64.60;102400.44;5090107;28;20044;-81
2022/05/19 00:14:18;;;;;;;3.35;1.13;;;;;;;17.21;64.65;102397.34;5055411;28;20573;-82
2022/05/19 00:16:44;;;;;;;1.77;1.30;;;;;;;17.18;64.77;102397.16;5087872;28;20540;-82
2022/05/19 00:19:10;;;;;;;1.30;1.05;;;;;;;17.26;64.30;102417.84;5071288;28;20119;-82
2022/05/19 00:21:37;;;;;;;2.65;1.48;;;;;;;17.25;64.67;102409.84;5089224;28;20392;-82
2022/05/19 00:24:03;;;;;;;4.72;1.27;;;;;;;17.19;64.63;102409.56;5071107;28;20062;-83
2022/05/19 00:26:29;;;;;;;2.25;0.82;;;;;;;17.21;64.54;102410.53;5072315;28;20028;-82
2022/05/19 00:28:55;;;;;;;1.60;1.38;;;;;;;17.17;64.53;102403.28;5089961;28;20086;-82
2022/05/19 00:31:20;;;;;;;3.65;1.10;;;;;;;17.21;64.46;102411.44;5089262;28;20020;-83
2022/05/19 00:33:46;;;;;;;3.15;1.15;;;;;;;17.20;64.54;102414.00;5091703;28;20473;-83
2022/05/19 00:36:15;;;;;;;2.67;0.77;;;;;;;17.20;64.39;102411.34;5072005;28;20028;-83
2022/05/19 00:38:41;;;;;;;1.80;1.20;;;;;;;17.18;64.37;102420.91;5088491;28;20028;-82
2022/05/19 00:41:07;;;;;;;2.15;1.20;;;;;;;17.07;64.56;102404.50;5072175;28;20024;-83
2022/05/19 00:43:36;;;;;;;1.98;1.13;;;;;;;17.19;64.38;102415.72;5089743;28;20096;-82
2022/05/19 00:46:07;;;;;;;1.30;1.02;;;;;;;17.15;64.42;102416.38;5088967;28;20032;-81
2022/05/19 00:48:53;;;;;;;2.38;1.02;;;;;;;16.94;64.64;102381.81;5071227;28;20024;-82
2022/05/19 00:51:29;;;;;;;1.88;1.08;;;;;;;17.05;64.50;102401.78;5072259;28;20032;-82
2022/05/19 00:53:56;;;;;;;2.38;1.02;;;;;;;17.07;64.38;102402.75;5088259;28;20016;-82
2022/05/19 00:56:51;;;;;;;1.70;0.95;;;;;;;17.09;64.61;102406.41;5069264;28;20032;-83
2022/05/19 00:59:34;;;;;;;2.65;1.08;;;;;;;17.08;64.50;102407.25;5077805;28;20036;-82
2022/05/19 01:02:00;;;;;;;2.33;1.05;;;;;;;16.85;64.45;102376.06;5073283;28;20024;-83
2022/05/19 01:04:31;;;;;;;1.35;0.82;;;;;;;17.06;64.64;102410.63;5036360;28;20025;-83
2022/05/19 01:07:04;;;;;;;1.30;0.90;;;;;;;16.82;64.40;102367.97;5053195;28;20059;-82
2022/05/19 01:09:34;;;;;;;1.27;0.90;;;;;;;16.99;64.24;102396.16;5053200;28;20029;-82
2022/05/19 01:12:06;;;;;;;2.47;1.05;;;;;;;17.07;64.35;102418.59;5054466;28;20482;-82
2022/05/19 01:14:32;;;;;;;2.17;1.35;;;;;;;17.07;64.39;102409.78;5090306;28;20446;-82
2022/05/19 01:16:59;;;;;;;1.25;1.00;;;;;;;17.05;64.19;102416.72;5095375;28;20030;-82
2022/05/19 01:19:34;;;;;;;2.15;0.90;;;;;;;16.92;64.61;102404.59;5077212;28;20415;-82
2022/05/19 01:22:07;;;;;;;2.00;1.00;;;;;;;16.97;64.38;102408.38;5077267;28;20416;-83
2022/05/19 01:24:39;;;;;;;2.72;0.90;;;;;;;17.01;64.28;102420.91;5095088;28;20028;-82
2022/05/19 01:27:04;;;;;;;3.42;1.00;;;;;;;17.01;64.51;102420.91;5077260;28;20023;-82
2022/05/19 01:29:30;;;;;;;2.30;1.17;;;;;;;17.01;64.42;102425.28;5077518;28;20379;-83
2022/05/19 01:32:01;;;;;;;1.52;1.10;;;;;;;16.97;64.55;102425.94;5092686;28;20393;-82
2022/05/19 01:34:30;;;;;;;2.78;1.00;;;;;;;16.91;64.69;102426.50;5075771;28;20032;-82
2022/05/19 01:36:56;;;;;;;3.55;0.90;;;;;;;16.89;64.56;102423.81;5073910;28;20020;-81
2022/05/19 01:39:25;;;;;;;1.02;0.80;;;;;;;16.95;64.46;102424.94;5076720;28;20525;-82
2022/05/19 01:42:07;;;;;;;2.10;1.08;;;;;;;16.95;64.54;102428.50;5059762;28;20035;-82
2022/05/19 01:45:04;;;;;;;3.45;0.90;;;;;;;16.96;64.38;102427.69;5083817;28;20385;-82
2022/05/19 01:47:57;;;;;;;3.80;1.10;;;;;;;16.97;64.28;102425.94;5092953;28;20111;-82
2022/05/19 01:50:33;;;;;;;3.67;1.00;;;;;;;16.91;64.52;102431.78;5093883;28;20032;-82
2022/05/19 01:53:13;;;;;;;2.85;0.80;;;;;;;16.92;64.38;102428.34;5074514;28;20020;-82
2022/05/19 01:55:51;;;;;;;1.58;1.00;;;;;;;16.97;64.32;102426.84;5093220;28;20036;-82
2022/05/19 01:58:30;;;;;;;2.17;0.98;;;;;;;16.91;64.20;102415.94;5091008;28;20093;-82
2022/05/19 02:00:59;;;;;;;2.10;1.00;;;;;;;16.77;64.41;102412.53;5075098;28;20028;-82
2022/05/19 02:03:30;;;;;;;2.15;1.00;;;;;;;16.83;64.42;102423.47;5091824;28;20032;-82
2022/05/19 02:06:08;;;;;;;2.13;1.08;;;;;;;16.85;64.33;102440.28;5093016;28;20024;-82
2022/05/19 02:08:41;;;;;;;1.70;1.00;;;;;;;16.84;64.47;102438.47;5075054;28;20157;-82
2022/05/19 02:11:10;;;;;;;2.75;1.10;;;;;;;16.83;64.44;102441.94;5093141;28;20739;-82
2022/05/19 02:13:37;;;;;;;2.28;0.82;;;;;;;16.84;64.37;102441.09;5073637;28;20559;-81
2022/05/19 02:16:03;;;;;;;;;;;;;;;16.77;64.59;102443.31;5074649;28;20063;-82
2022/05/19 02:18:29;;;;;;;1.48;0.95;;;;;;;16.77;64.75;102445.94;5075892;28;20422;-82
2022/05/19 02:20:57;;;;;;;1.40;1.10;;;;;;;16.79;64.40;102446.94;5091689;28;20038;-82
2022/05/19 02:23:24;;;;;;;1.00;0.88;;;;;;;16.75;64.53;102432.66;5092995;28;20052;-81
2022/05/19 02:25:52;;;;;;;3.25;1.30;;;;;;;16.73;64.62;102436.03;5074435;28;20039;-82
2022/05/19 02:28:30;;;;;;;2.22;1.00;;;;;;;16.75;64.51;102440.56;5093893;28;20028;-82
2022/05/19 02:30:56;;;;;;;1.48;1.10;;;;;;;16.78;64.34;102432.81;5072753;28;20035;-81
2022/05/19 02:33:22;;;;;;;2.17;0.90;;;;;;;16.84;64.25;102437.56;5093892;28;20503;-82
2022/05/19 02:35:48;;;;;;;3.13;1.27;;;;;;;16.73;64.41;102434.28;5092504;28;20062;-82
2022/05/19 02:38:15;;;;;;;0.93;0.88;;;;;;;16.79;64.27;102450.47;5092663;28;20497;-82
2022/05/19 02:40:41;;;;;;;1.20;1.10;;;;;;;16.63;64.37;102421.41;5073943;28;20035;-82
2022/05/19 02:43:07;;;;;;;1.13;0.80;;;;;;;16.74;64.42;102436.09;5072661;28;20043;-82
2022/05/19 02:45:33;;;;;;;1.38;0.98;;;;;;;16.77;64.25;102452.13;5092303;28;20024;-82
2022/05/19 02:47:59;;;;;;;1.33;0.90;;;;;;;16.78;64.29;102458.28;5075246;28;20081;-83
2022/05/19 02:50:25;;;;;;;2.35;1.17;;;;;;;16.76;64.26;102445.00;5072714;28;20039;-83
2022/05/19 02:52:51;;;;;;;2.40;1.02;;;;;;;16.72;64.32;102447.41;5073690;28;20032;-83
2022/05/19 02:55:17;;;;;;;5.75;1.35;;;;;;;16.67;64.28;102437.50;5073918;28;20020;-83
2022/05/19 02:57:42;;;;;;;;;;;;;;;16.72;64.36;102452.66;5074830;28;20058;-83
2022/05/19 03:00:12;;;;;;;1.80;0.90;;;;;;;16.74;64.37;102461.56;5092497;28;19912;-82
2022/05/19 03:02:39;;;;;;;3.88;1.05;;;;;;;16.68;64.43;102463.06;5074212;28;20070;-83
2022/05/19 03:05:05;;;;;;;1.73;1.10;;;;;;;16.72;64.47;102463.22;5091007;28;20032;-82
2022/05/19 03:07:31;;;;;;;3.50;1.00;;;;;;;16.70;64.31;102460.53;5090458;28;20028;-82
2022/05/19 03:09:56;;;;;;;2.15;0.95;;;;;;;16.68;64.67;102472.72;5091679;28;20024;-82
2022/05/19 03:12:22;;;;;;;2.03;1.20;;;;;;;16.58;64.45;102452.81;5087899;28;20497;-82
2022/05/19 03:14:48;;;;;;;2.88;1.10;;;;;;;16.71;64.38;102469.34;5074436;28;20480;-81
2022/05/19 03:17:13;;;;;;;2.95;1.35;;;;;;;16.55;64.44;102449.09;5091233;28;20067;-82
2022/05/19 03:19:39;;;;;;;1.20;1.10;;;;;;;16.64;64.64;102470.72;5091816;28;20077;-82
2022/05/19 03:22:06;;;;;;;2.63;1.35;;;;;;;16.64;64.37;102474.25;5072457;28;20401;-82
2022/05/19 03:24:32;;;;;;;1.58;1.20;;;;;;;16.66;64.44;102467.34;5073595;28;20039;-82
2022/05/19 03:26:57;;;;;;;2.25;1.40;;;;;;;16.67;64.28;102466.50;5057831;28;20024;-82
2022/05/19 03:29:23;;;;;;;2.70;0.98;;;;;;;16.56;64.55;102469.38;5071576;28;20110;-82
2022/05/19 03:31:49;;;;;;;2.13;1.40;;;;;;;16.55;64.60;102470.19;5091478;28;20023;-82
2022/05/19 03:34:18;;;;;;;6.40;1.45;;;;;;;16.38;64.79;102445.50;5091270;28;20115;-83
2022/05/19 03:36:47;;;;;;;3.85;1.42;;;;;;;16.58;64.43;102471.28;5090003;28;20031;-83
2022/05/19 03:39:13;;;;;;;2.75;1.20;;;;;;;16.44;64.66;102446.75;5090971;28;20036;-82
2022/05/19 03:41:39;;;;;;;3.58;1.40;;;;;;;16.53;64.50;102477.09;5070908;28;20153;-82
2022/05/19 03:44:05;;;;;;;2.85;1.25;;;;;;;16.53;64.48;102478.03;5072450;28;20105;-82
2022/05/19 03:46:30;;;;;;;;;;;;;;;16.57;64.32;102477.34;5066154;28;20448;-82
2022/05/19 03:48:56;;;;;;;3.05;1.33;;;;;;;16.44;64.33;102457.28;5088662;28;20385;-82
2022/05/19 03:51:24;;;;;;;3.92;1.35;;;;;;;16.52;64.42;102478.84;5091919;28;20027;-82
2022/05/19 03:53:51;;;;;;;4.97;1.40;;;;;;;16.38;64.51;102454.34;5086248;28;20039;-82
2022/05/19 03:56:18;;;;;;;1.42;1.33;;;;;;;16.48;64.63;102479.47;5070498;28;20020;-82
2022/05/19 03:58:44;;;;;;;2.70;1.38;;;;;;;16.44;64.71;102485.41;5070678;28;20024;-82
2022/05/19 04:01:09;;;;;;;1.85;1.40;;;;;;;16.46;64.46;102486.41;5038390;28;20043;-82
2022/05/19 04:03:35;;;;;;;3.17;1.30;;;;;;;16.43;64.74;102481.84;5075244;28;20051;-82
2022/05/19 04:06:01;;;;;;;1.30;1.20;;;;;;;16.35;64.59;102469.06;5072896;28;20052;-83
2022/05/19 04:08:27;;;;;;;2.05;1.42;;;;;;;16.43;64.58;102492.41;5061369;28;20075;-82
2022/05/19 04:10:52;;;;;;;4.60;1.30;;;;;;;16.42;64.56;102485.31;5088661;28;20055;-83
2022/05/19 04:13:18;;;;;;;1.40;1.23;;;;;;;16.42;64.45;102480.03;5091184;28;20024;-82
2022/05/19 04:15:44;;;;;;;2.88;1.40;;;;;;;16.39;64.77;102484.25;5090532;28;20401;-82
2022/05/19 04:18:09;;;;;;;3.85;1.30;;;;;;;16.24;64.39;102469.34;5071631;28;20096;-83
2022/05/19 04:20:35;;;;;;;1.85;1.30;;;;;;;16.34;64.58;102476.06;5087971;28;20027;-82
2022/05/19 04:23:01;;;;;;;3.03;1.50;;;;;;;16.34;64.71;102490.97;5090625;28;20098;-82
2022/05/19 04:25:29;;;;;;;2.92;1.30;;;;;;;16.32;64.68;102490.88;5071709;28;20035;-82
2022/05/19 04:27:55;;;;;;;5.57;1.45;;;;;;;16.35;64.81;102498.97;5090332;28;20036;-82
2022/05/19 04:30:21;;;;;;;;;;;;;;;16.42;64.55;102500.22;5071671;28;20032;-82
2022/05/19 04:32:47;;;;;;;3.72;1.60;;;;;;;16.35;64.59;102503.34;5089012;28;19924;-82
2022/05/19 04:35:14;;;;;;;2.70;1.38;;;;;;;16.33;64.96;102494.44;5071993;28;20028;-82
2022/05/19 04:37:40;;;;;;;3.83;1.38;;;;;;;16.24;64.55;102487.78;5072263;28;20036;-82
2022/05/19 04:40:07;;;;;;;4.28;1.70;;;;;;;16.32;64.72;102501.44;5070745;28;20050;-82
2022/05/19 04:42:33;;;;;;;4.80;1.50;;;;;;;16.34;64.78;102509.41;5089236;28;20114;-82
2022/05/19 04:44:59;;;;;;;2.00;1.50;;;;;;;16.34;64.61;102512.97;5073251;28;20115;-82
2022/05/19 04:47:25;;;;;;;3.38;1.80;;;;;;;16.36;64.46;102513.97;5087886;28;20115;-82
2022/05/19 04:49:51;;;;;;;5.38;1.40;;;;;;;16.32;64.46;102511.97;5089974;28;20455;-82
2022/05/19 04:52:16;;;;;;;5.45;1.80;;;;;;;16.32;64.52;102509.34;5090126;28;20036;-82
2022/05/19 04:54:42;;;;;;;2.58;1.63;;;;;;;16.27;64.93;102502.88;5068217;28;20084;-83
2022/05/19 04:57:10;;;;;;;2.63;1.25;;;;;;;16.32;64.56;102509.34;5085783;28;20088;-86
2022/05/19 04:59:37;;;;;;;2.92;1.55;;;;;;;16.28;64.65;102505.59;5071005;28;20035;-84
2022/05/19 05:02:02;;;;;;;2.88;1.60;;;;;;;16.27;64.45;102497.59;5089257;28;20040;-85
2022/05/19 05:04:30;;;;;;;2.55;1.52;;;;;;;16.26;64.70;102522.16;5070984;28;20031;-86
2022/05/19 05:06:56;;;;;;;1.27;1.17;;;;;;;16.29;64.64;102514.41;5066045;28;20428;-85
2022/05/19 05:09:23;;;;;;;3.20;1.55;;;;;;;16.19;64.54;102497.19;5054105;28;20509;-85
2022/05/19 05:11:51;;;;;;;2.58;1.45;;;;;;;16.19;64.87;102512.06;5065386;28;20460;-84
2022/05/19 05:14:17;;;;;;;2.85;1.58;;;;;;;16.28;64.82;102512.63;5069054;28;20039;-84
2022/05/19 05:16:46;;;;;;;2.85;1.60;;;;;;;16.06;64.61;102486.69;5059051;28;20052;-84
2022/05/19 05:19:12;;;;;;;4.07;1.50;;;;;;;16.31;64.67;102518.06;5069833;28;20565;-84
2022/05/19 05:21:37;;;;;;;3.88;1.50;;;;;;;16.19;64.78;102497.19;5071317;28;20019;-84
2022/05/19 05:24:08;;;;;;;2.15;1.75;;;;;;;16.29;64.85;102517.97;5069775;28;20484;-85
2022/05/19 05:26:34;;;;;;;2.15;1.58;;;;;;;16.13;64.91;102495.88;5046110;28;20432;-84
2022/05/19 05:29:00;;;;;;;4.32;1.60;;;;;;;16.16;64.78;102501.34;5070900;28;20016;-83
2022/05/19 05:31:25;;;;;;;1.85;1.48;;;;;;;16.29;64.86;102525.88;5069745;28;20478;-84
2022/05/19 05:33:51;;;;;;;2.47;1.40;;;;;;;16.28;64.67;102516.16;5072114;28;20409;-84
2022/05/19 05:36:16;;;;;;;4.13;1.60;;;;;;;16.27;64.80;102516.06;5069876;28;20524;-84
2022/05/19 05:38:42;;;;;;;2.20;1.65;;;;;;;16.18;64.87;102510.25;5073653;28;20107;-84
2022/05/19 05:41:08;;;;;;;2.53;1.70;;;;;;;15.98;65.02;102478.38;5081832;28;20032;-84
2022/05/19 05:43:35;;;;;;;2.80;1.73;;;;;;;16.26;64.78;102523.06;5060341;28;20024;-85
2022/05/19 05:46:09;;;;;;;3.40;1.48;;;;;;;16.27;64.86;102521.34;5086497;28;20033;-84
2022/05/19 05:48:36;;;;;;;1.92;1.70;;;;;;;16.22;65.04;102521.06;5059234;28;20028;-86
2022/05/19 05:51:04;;;;;;;3.80;1.80;;;;;;;15.99;64.85;102484.53;5054482;28;20028;-85
2022/05/19 05:53:35;;;;;;;2.35;1.55;;;;;;;16.21;64.79;102513.06;5048675;28;20033;-85
2022/05/19 05:56:03;;;;;;;2.45;1.58;;;;;;;16.25;64.89;102512.41;5056859;28;20042;-86
2022/05/19 05:58:30;;;;;;;4.25;1.42;;;;;;;15.70;65.07;102420.44;5055458;28;20032;-86
2022/05/19 06:00:55;;;;;;;3.22;1.40;;;;;;;16.16;65.08;102523.34;5085728;28;20114;-82
2022/05/19 06:03:23;;;;;;;2.60;1.80;;;;;;;15.97;64.70;102470.34;5100026;28;20563;-85
2022/05/19 06:05:52;;;;;;;2.67;1.40;;;;;;;16.03;64.71;102486.53;5059111;28;20497;-84
2022/05/19 06:08:18;;;;;;;3.53;1.60;;;;;;;15.84;64.98;102451.19;5061080;28;20032;-84
2022/05/19 06:10:45;;;;;;;3.67;1.42;;;;;;;15.95;64.84;102475.53;5072282;28;20059;-83
2022/05/19 06:13:11;;;;;;;3.58;1.92;;;;;;;16.21;65.02;102527.16;5093889;28;20146;-83
2022/05/19 06:15:36;;;;;;;3.80;1.88;;;;;;;15.89;64.91;102472.53;5093875;28;20095;-84
2022/05/19 06:18:02;;;;;;;2.08;1.60;;;;;;;15.95;64.85;102474.63;5062441;28;20044;-85
2022/05/19 06:20:29;;;;;;;2.00;1.40;;;;;;;16.20;64.87;102513.91;5067051;28;20037;-86
2022/05/19 06:22:55;;;;;;;3.92;1.58;;;;;;;16.08;64.86;102499.16;5055797;28;20032;-84
2022/05/19 06:25:22;;;;;;;3.10;1.58;;;;;;;16.18;64.89;102526.97;5055788;28;20028;-85
2022/05/19 06:27:51;;;;;;;3.45;1.67;;;;;;;16.21;64.72;102532.44;5073472;28;20082;-84
2022/05/19 06:30:17;;;;;;;1.98;1.45;;;;;;;16.22;64.82;102526.34;5056024;28;20107;-85
2022/05/19 06:32:44;;;;;;;;;;;;;;;16.24;64.71;102540.53;5039567;28;20149;-84
2022/05/19 06:35:11;;;;;;;2.90;1.80;;;;;;;16.06;64.54;102510.41;5071760;28;19915;-84
2022/05/19 06:37:37;;;;;;;3.30;1.70;;;;;;;16.20;64.69;102533.25;5071246;28;20032;-85
2022/05/19 06:40:04;;;;;;;2.17;1.80;;;;;;;16.13;64.71;102522.22;5075417;28;20028;-84
2022/05/19 06:42:29;;;;;;;2.63;1.70;;;;;;;16.08;64.40;102514.06;5074385;28;20036;-84
2022/05/19 06:44:56;;;;;;;5.28;1.58;;;;;;;16.13;64.47;102512.63;5089151;28;20032;-84
2022/05/19 06:47:21;;;;;;;;;;;;;;;16.38;63.47;102533.44;5090059;28;20024;-83
2022/05/19 06:49:51;;;;;;;9.98;2.25;;;;;;;16.21;62.27;102524.53;5071214;28;20370;-83
2022/05/19 06:52:19;;;;;;;5.30;2.13;;;;;;;16.14;63.53;102530.25;5071271;28;20102;-82
2022/05/19 06:54:47;;;;;;;5.93;2.25;;;;;;;15.99;63.44;102489.81;5067957;28;20065;-84
2022/05/19 06:57:12;;;;;;;3.28;1.85;;;;;;;16.15;63.73;102523.22;5077812;28;20032;-84
2022/05/19 06:59:38;;;;;;;6.85;2.05;;;;;;;16.18;63.95;102528.72;5058128;28;20035;-84
2022/05/19 07:02:05;;;;;;;3.67;2.05;;;;;;;16.13;64.26;102524.88;5078399;28;20040;-84
2022/05/19 07:04:32;;;;;;;;;;;;;;;16.20;64.15;102532.34;5056899;28;20182;-85
2022/05/19 07:06:58;;;;;;;5.80;1.98;;;;;;;16.16;64.44;102527.69;5072427;28;19923;-84
2022/05/19 07:09:24;;;;;;;7.18;1.90;;;;;;;15.97;64.34;102499.34;5053304;28;20049;-83
2022/05/19 07:11:50;;;;;;;3.45;1.80;;;;;;;15.95;64.13;102487.81;5038727;28;20105;-85
2022/05/19 07:14:16;;;;;;;5.93;1.92;;;;;;;16.05;64.12;102506.00;5038651;28;20029;-84
2022/05/19 07:16:44;;;;;;;4.60;2.15;;;;;;;16.21;64.12;102529.81;5078792;28;20028;-86
2022/05/19 07:21:55;;;;;;;2.30;1.73;;;;;;;16.26;64.08;102527.44;5057843;28;20123;-86
2022/05/19 07:24:21;;;;;;;3.65;1.90;;;;;;;16.22;64.19;102520.16;5057925;28;20102;-86
2022/05/19 07:26:49;;;;;;;2.47;1.80;;;;;;;16.21;64.18;102518.31;5067546;28;20458;-85
2022/05/19 07:29:16;;;;;;;3.40;1.70;;;;;;;16.17;64.32;102521.59;5090624;28;20404;-85
2022/05/19 07:31:46;;;;;;;4.63;1.95;;;;;;;16.14;64.18;102516.16;5077173;28;20032;-87
2022/05/19 07:34:13;;;;;;;5.15;1.92;;;;;;;15.98;64.16;102493.25;5083509;28;20032;-86
2022/05/19 07:36:39;;;;;;;3.97;1.95;;;;;;;16.27;64.16;102535.41;5099027;28;20111;-86
2022/05/19 07:39:04;;;;;;;;;;;;;;;16.25;64.14;102533.50;5070691;28;20031;-85
2022/05/19 07:41:31;;;;;;;3.47;2.15;;;;;;;16.16;63.97;102522.44;5079423;28;19916;-86
2022/05/19 07:44:00;;;;;;;6.07;2.10;;;;;;;16.07;64.44;102512.25;5078733;28;20020;-86
2022/05/19 07:46:27;;;;;;;3.85;2.00;;;;;;;16.19;64.13;102534.06;5074486;28;20031;-85
2022/05/19 07:48:56;;;;;;;1.98;1.80;;;;;;;16.13;64.28;102524.88;5076097;28;20031;-84
2022/05/19 07:51:33;;;;;;;4.07;1.98;;;;;;;16.20;64.37;102538.50;5084912;28;20488;-84
2022/05/19 07:53:59;;;;;;;3.63;1.88;;;;;;;16.05;64.18;102508.63;5075656;28;20062;-84
2022/05/19 07:56:26;;;;;;;2.50;2.00;;;;;;;16.07;64.08;102514.91;5092709;28;20644;-84
2022/05/19 07:58:53;;;;;;;3.70;1.85;;;;;;;16.22;64.07;102539.50;5092404;28;20476;-84
2022/05/19 08:01:19;;;;;;;5.40;2.10;;;;;;;16.22;64.09;102528.06;5092156;28;20023;-84
2022/05/19 08:03:45;;;;;;;4.07;2.10;;;;;;;16.26;64.04;102541.53;5091636;28;20481;-83
2022/05/19 08:06:11;;;;;;;5.68;1.98;;;;;;;16.07;64.36;102509.63;5072317;28;20471;-83
2022/05/19 08:08:38;;;;;;;4.00;2.00;;;;;;;16.11;64.18;102516.91;5075660;28;20024;-83
2022/05/19 08:11:03;;;;;;;2.10;1.85;;;;;;;16.22;64.24;102547.44;5081472;28;20514;-83
2022/05/19 08:16:14;;;;;;;5.68;2.20;;;;;;;16.18;64.28;102541.88;5112474;28;20042;-83
2022/05/19 08:18:40;;;;;;;2.53;2.17;;;;;;;16.18;64.30;102540.16;5103892;28;20052;-83
2022/05/19 08:21:10;;;;;;;5.13;1.95;;;;;;;16.00;64.33;102517.97;5073433;28;20024;-83
2022/05/19 08:23:39;;;;;;;2.75;2.10;;;;;;;15.85;64.30;102483.69;5073610;28;20026;-83
2022/05/19 08:26:05;;;;;;;2.42;2.05;;;;;;;16.25;64.36;102552.88;5099747;28;20055;-81
2022/05/19 08:28:35;;;;;;;4.47;1.90;;;;;;;16.22;64.50;102550.06;5081823;28;20098;-83
2022/05/19 08:31:04;;;;;;;4.80;2.17;;;;;;;16.23;64.37;102546.63;5088214;28;20122;-83
2022/05/19 08:33:30;;;;;;;2.88;2.08;;;;;;;16.23;64.27;102546.63;5065621;28;20497;-82
2022/05/19 08:35:56;;;;;;;3.47;2.00;;;;;;;16.14;64.43;102535.50;5080093;28;20105;-83
2022/05/19 08:38:22;;;;;;;2.42;1.92;;;;;;;16.07;64.42;102526.34;5108286;28;20493;-82
2022/05/19 08:40:58;;;;;;;3.55;2.13;;;;;;;16.14;64.42;102538.16;5085439;28;20039;-83
2022/05/19 08:43:28;;;;;;;2.67;2.08;;;;;;;16.16;64.55;102546.16;5093090;28;20562;-82
2022/05/19 08:45:56;;;;;;;3.97;2.13;;;;;;;16.17;64.63;102540.06;5090730;28;20023;-82
2022/05/19 08:48:27;;;;;;;4.68;2.53;;;;;;;16.21;64.48;102555.22;5072737;28;20020;-82
2022/05/19 08:51:00;;;;;;;2.70;1.90;;;;;;;16.24;64.79;102558.06;5079380;28;20092;-82
2022/05/19 08:53:29;;;;;;;3.80;2.10;;;;;;;16.24;64.57;102556.34;5078198;28;20081;-82
2022/05/19 08:56:05;;;;;;;3.03;2.10;;;;;;;16.24;64.52;102560.72;5096902;28;20077;-82
2022/05/19 08:58:44;;;;;;;2.17;1.98;;;;;;;16.13;64.55;102540.69;5091986;28;20474;-81
2022/05/19 09:01:18;;;;;;;3.95;2.10;;;;;;;16.21;64.60;102543.00;5106684;28;20082;-83
2022/05/19 09:04:06;;;;;;;4.13;2.10;;;;;;;16.26;64.51;102548.53;5080188;28;20028;-83
2022/05/19 09:06:36;;;;;;;;;;;;;;;16.27;64.66;102552.97;5111990;28;20076;-83
2022/05/19 09:09:11;;;;;;;4.00;2.20;;;;;;;16.26;64.56;102548.53;5079781;28;20143;-82
2022/05/19 09:11:56;;;;;;;4.07;2.10;;;;;;;16.26;64.62;102545.88;5091706;28;20076;-82
2022/05/19 09:14:28;;;;;;;4.78;2.15;;;;;;;16.27;64.60;102545.97;5072245;28;20027;-84
2022/05/19 09:17:02;;;;;;;2.90;2.10;;;;;;;16.27;64.60;102545.06;5053827;28;20494;-83
2022/05/19 09:19:38;;;;;;;4.10;2.22;;;;;;;16.27;64.78;102552.97;5054041;28;20028;-83
2022/05/19 09:22:14;;;;;;;4.22;2.15;;;;;;;16.11;64.63;102516.91;5056446;28;20115;-83
2022/05/19 09:24:47;;;;;;;2.90;2.05;;;;;;;15.92;64.59;102474.44;5056404;28;20039;-83
2022/05/19 09:27:13;;;;;;;2.80;1.90;;;;;;;16.29;64.53;102546.97;5036229;28;20037;-82
2022/05/19 09:29:45;;;;;;;3.75;2.10;;;;;;;15.96;64.62;102473.78;5016529;28;20024;-81
2022/05/19 09:32:23;;;;;;;3.72;2.22;;;;;;;16.33;64.67;102536.63;5066201;28;20032;-85
2022/05/19 09:34:51;;;;;;;2.70;1.80;;;;;;;16.33;64.58;102540.16;5079558;28;20065;-83
2022/05/19 09:37:40;;;;;;;3.33;1.92;;;;;;;16.32;64.49;102547.97;5055991;28;20028;-83
2022/05/19 09:40:19;;;;;;;4.13;2.30;;;;;;;16.38;64.36;102557.16;5076890;28;20059;-83
2022/05/19 09:43:10;;;;;;;3.13;2.10;;;;;;;16.40;63.97;102538.78;5075161;28;20033;-83
2022/05/19 09:45:43;;;;;;;3.78;2.10;;;;;;;16.39;63.95;102539.63;5037019;28;20098;-83
2022/05/19 09:48:10;;;;;;;2.05;1.85;;;;;;;16.26;64.06;102527.44;5053441;28;20402;-83
2022/05/19 09:50:47;;;;;;;4.32;2.30;;;;;;;16.31;63.91;102532.97;5036631;28;20174;-83
2022/05/19 09:53:25;;;;;;;3.58;2.10;;;;;;;16.28;63.74;102516.16;5037806;28;20052;-83
2022/05/19 09:56:10;;;;;;;2.50;2.00;;;;;;;16.46;63.88;102544.41;5075268;28;20519;-83
2022/05/19 09:58:40;;;;;;;2.25;2.05;;;;;;;16.52;63.67;102543.88;5074658;28;20058;-82
2022/05/19 10:01:15;;;;;;;2.95;2.20;;;;;;;16.45;63.83;102535.59;5067317;28;20021;-83
2022/05/19 10:03:51;;;;;;;2.15;1.95;;;;;;;16.44;63.95;102522.31;5064562;28;20039;-83
2022/05/19 10:06:23;;;;;;;4.13;2.30;;;;;;;16.47;64.23;102527.78;5076118;28;20489;-85
2022/05/19 10:09:06;;;;;;;2.63;2.05;;;;;;;16.49;64.27;102536.69;5067549;28;20275;-82
2022/05/19 10:11:34;;;;;;;2.35;2.05;;;;;;;16.17;64.14;102475.09;5063156;28;20097;-84
2022/05/19 10:14:10;;;;;;;2.40;2.10;;;;;;;16.24;64.08;102489.53;5038152;28;20146;-83
2022/05/19 10:17:01;;;;;;;3.83;2.10;;;;;;;16.36;63.94;102508.72;5064787;28;20073;-81
2022/05/19 10:19:52;;;;;;;3.75;2.40;;;;;;;16.54;64.29;102539.59;5073783;28;20032;-81
2022/05/19 10:22:37;;;;;;;2.40;2.05;;;;;;;16.25;64.23;102489.59;5073113;28;20039;-81
2022/05/19 10:25:18;;;;;;;2.40;2.13;;;;;;;16.52;64.08;102535.97;5074061;28;20036;-82
2022/05/19 10:31:06;;;;;;;2.95;2.22;;;;;;;16.54;64.27;102534.31;5105326;28;20047;-81
2022/05/19 10:33:49;;;;;;;2.90;2.30;;;;;;;16.55;64.49;102531.78;5107795;28;20027;-81
2022/05/19 10:36:35;;;;;;;2.97;1.98;;;;;;;16.34;64.57;102502.44;5076514;28;20066;-81
2022/05/19 10:39:17;;;;;;;2.58;2.33;;;;;;;16.49;64.58;102527.03;5104546;28;20028;-81
2022/05/19 10:41:57;;;;;;;3.33;1.83;;;;;;;16.45;64.39;102516.25;5091513;28;20039;-81
2022/05/19 10:44:47;;;;;;;2.83;2.00;;;;;;;16.49;64.70;102523.50;5075823;28;20471;-82
2022/05/19 10:47:55;;;;;;;4.53;2.50;;;;;;;16.56;64.60;102512.47;5097943;28;20035;-81
2022/05/19 10:50:28;;;;;;;4.13;2.40;;;;;;;16.56;63.87;102512.47;5107759;28;20134;-81
2022/05/19 10:53:31;;;;;;;4.43;2.47;;;;;;;16.56;64.05;102516.84;5097573;28;20084;-81
2022/05/19 10:56:05;;;;;;;3.83;2.30;;;;;;;16.69;64.41;102515.00;5095700;28;20416;-81
2022/05/19 10:58:37;;;;;;;2.42;2.22;;;;;;;16.75;64.22;102509.16;5102133;28;20036;-82
2022/05/19 11:01:50;;;;;;;2.33;2.13;;;;;;;16.74;64.16;102501.16;5095974;28;20036;-81
2022/05/19 11:04:25;;;;;;;4.85;2.33;;;;;;;16.76;64.52;102510.06;5070513;28;20483;-81
2022/05/19 11:06:56;;;;;;;3.40;2.47;;;;;;;16.77;64.63;102511.91;5092668;28;20024;-82
2022/05/19 11:09:42;;;;;;;4.10;2.22;;;;;;;16.72;64.68;102502.78;5084264;28;20093;-81
2022/05/19 11:12:21;;;;;;;5.20;2.35;;;;;;;16.80;64.66;102509.41;5106491;28;20051;-82
2022/05/19 11:15:05;;;;;;;4.90;2.35;;;;;;;16.77;64.88;102506.63;5104409;28;20111;-81
2022/05/19 11:17:56;;;;;;;2.63;2.40;;;;;;;16.80;64.60;102502.44;5091199;28;20500;-80
2022/05/19 11:20:28;;;;;;;3.75;2.40;;;;;;;16.83;64.72;102510.53;5091881;28;20035;-81
2022/05/19 11:23:01;;;;;;;2.45;2.25;;;;;;;16.74;64.69;102487.97;5074465;28;20150;-80
2022/05/19 11:28:32;;;;;;;2.67;2.20;;;;;;;16.81;64.94;102490.19;5077693;28;20084;-81
2022/05/19 11:31:02;;;;;;;4.55;2.20;;;;;;;16.77;65.04;102482.88;5074656;28;20024;-81
2022/05/19 11:33:33;;;;;;;3.13;2.20;;;;;;;16.81;64.98;102496.34;5074560;28;20059;-81
2022/05/19 11:36:07;;;;;;;2.42;2.05;;;;;;;16.80;64.99;102485.69;5092740;28;20426;-81
2022/05/19 11:39:11;;;;;;;2.50;2.22;;;;;;;16.91;64.59;102491.56;5092430;28;20024;-80
2022/05/19 11:41:38;;;;;;;2.22;1.90;;;;;;;16.86;65.04;102494.88;5045345;28;20473;-80
2022/05/19 11:44:11;;;;;;;3.10;2.35;;;;;;;16.78;65.26;102479.41;5056454;28;20052;-81
2022/05/19 11:47:07;;;;;;;2.40;2.20;;;;;;;16.89;64.99;102491.53;5092132;28;20059;-81
2022/05/19 11:55:37;;;;;;;3.72;2.20;;;;;;;16.50;64.96;102411.91;5076824;28;20425;-81
2022/05/19 11:58:20;;;;;;;2.58;1.92;;;;;;;16.83;65.39;102472.72;5074260;28;20055;-81
2022/05/19 12:01:10;;;;;;;3.42;2.35;;;;;;;16.90;65.30;102469.56;5072430;28;20515;-81